Time;durP1;ratioP1;P1;durP2;ratioP2;P2;SDS_P1;SDS_P2;PMS_P1;PMS_P2;Temp;Humidity;BMP_temperature;BMP_pressure;BME280_temperature;BME280_humidity;BME280_pressure;Samples;Min_cycle;Max_cycle;Signal;HPM_P1;HPM_P2
2022/02/22 00:00:14;;;;;;;51.95;36.63;;;;;;;;;;5087518;28;20681;-92
2022/02/22 00:02:41;;;;;;;54.83;36.50;;;;;;;;;;5088791;28;20493;-92
2022/02/22 00:05:09;;;;;;;53.63;37.13;;;;;;;;;;5087426;28;20953;-93
2022/02/22 00:07:36;;;;;;;51.58;36.33;;;;;;;;;;5087530;28;20388;-92
2022/02/22 00:10:05;;;;;;;53.30;36.90;;;;;;;;;;5067694;28;21255;-91
2022/02/22 00:12:34;;;;;;;51.25;35.22;;;;;;;;;;5091961;28;20443;-92
2022/02/22 00:15:00;;;;;;;48.33;34.10;;;;;;;;;;5087826;28;20453;-92
2022/02/22 00:17:28;;;;;;;48.70;35.30;;;;;;;;;;5093286;28;20407;-92
2022/02/22 00:19:55;;;;;;;50.08;34.45;;;;;;;;;;5088221;28;20400;-92
2022/02/22 00:22:22;;;;;;;53.90;36.63;;;;;;;;;;5087567;28;20411;-90
2022/02/22 00:24:48;;;;;;;49.80;33.83;;;;;;;;;;5087562;28;20545;-91
2022/02/22 00:27:16;;;;;;;48.63;33.67;;;;;;;;;;5087347;28;21085;-92
2022/02/22 00:29:44;;;;;;;49.85;33.88;;;;;;;;;;5087550;28;20541;-92
2022/02/22 00:32:11;;;;;;;48.75;32.30;;;;;;;;;;5099029;28;20394;-93
2022/02/22 00:34:38;;;;;;;44.15;30.67;;;;;;;;;;5087525;28;20454;-93
2022/02/22 00:37:05;;;;;;;44.42;31.38;;;;;;;;;;5091817;28;20408;-92
2022/02/22 00:39:32;;;;;;;41.65;30.25;;;;;;;;;;5087364;28;20412;-92
2022/02/22 00:41:59;;;;;;;44.45;31.42;;;;;;;;;;5100470;28;20427;-92
2022/02/22 00:44:27;;;;;;;38.22;27.45;;;;;;;;;;5087403;28;20412;-92
2022/02/22 00:46:55;;;;;;;39.58;27.60;;;;;;;;;;5091444;28;20477;-91
2022/02/22 00:49:22;;;;;;;41.70;29.15;;;;;;;;;;5087401;28;20400;-91
2022/02/22 00:51:49;;;;;;;42.13;28.70;;;;;;;;;;5086301;28;21181;-91
2022/02/22 00:54:16;;;;;;;41.57;28.60;;;;;;;;;;5087237;28;20465;-91
2022/02/22 00:56:43;;;;;;;37.75;26.15;;;;;;;;;;5103808;28;21163;-91
2022/02/22 00:59:10;;;;;;;36.97;25.83;;;;;;;;;;5089443;28;20507;-92
2022/02/22 01:01:37;;;;;;;35.50;25.35;;;;;;;;;;5090669;28;20410;-90
2022/02/22 01:04:06;;;;;;;35.13;24.67;;;;;;;;;;5085718;28;20405;-91
2022/02/22 01:06:33;;;;;;;37.05;25.08;;;;;;;;;;5070390;28;20452;-91
2022/02/22 01:09:03;;;;;;;36.67;25.77;;;;;;;;;;5088224;28;20408;-93
2022/02/22 01:11:29;;;;;;;36.55;25.98;;;;;;;;;;5090687;28;21207;-92
2022/02/22 01:13:56;;;;;;;36.70;25.65;;;;;;;;;;5092042;28;20404;-91
2022/02/22 01:16:24;;;;;;;36.37;26.07;;;;;;;;;;5096512;28;20809;-93
2022/02/22 01:18:50;;;;;;;37.58;24.70;;;;;;;;;;5090058;28;20404;-92
2022/02/22 01:21:19;;;;;;;36.92;26.38;;;;;;;;;;5102883;28;20400;-92
2022/02/22 01:23:45;;;;;;;37.78;26.13;;;;;;;;;;5096907;28;20457;-92
2022/02/22 01:26:12;;;;;;;37.25;25.38;;;;;;;;;;5090761;28;20880;-92
2022/02/22 01:28:40;;;;;;;35.73;25.00;;;;;;;;;;5097920;28;20418;-91
2022/02/22 01:31:07;;;;;;;39.45;25.25;;;;;;;;;;5098118;28;20423;-91
2022/02/22 01:33:34;;;;;;;35.67;25.30;;;;;;;;;;5090561;28;20737;-90
2022/02/22 01:36:01;;;;;;;34.10;24.30;;;;;;;;;;5078728;28;20400;-92
2022/02/22 01:38:30;;;;;;;35.20;24.80;;;;;;;;;;5111113;28;20398;-91
2022/02/22 01:40:57;;;;;;;32.97;23.80;;;;;;;;;;5105693;28;21123;-92
2022/02/22 01:43:24;;;;;;;36.25;24.88;;;;;;;;;;5092921;28;20392;-91
2022/02/22 01:45:51;;;;;;;34.70;23.95;;;;;;;;;;5098402;28;20445;-92
2022/02/22 01:48:18;;;;;;;37.28;24.58;;;;;;;;;;5100931;28;20467;-90
2022/02/22 01:50:45;;;;;;;37.53;25.25;;;;;;;;;;5094556;28;20939;-92
2022/02/22 01:53:14;;;;;;;34.90;23.35;;;;;;;;;;5110972;28;20410;-91
2022/02/22 01:55:43;;;;;;;35.80;24.15;;;;;;;;;;5106221;28;20444;-90
2022/02/22 01:58:09;;;;;;;36.58;24.60;;;;;;;;;;5099289;28;20400;-92
2022/02/22 02:00:36;;;;;;;33.47;23.63;;;;;;;;;;5105515;28;20792;-92
2022/02/22 02:03:04;;;;;;;32.37;23.80;;;;;;;;;;5107040;27;20802;-91
2022/02/22 02:05:31;;;;;;;34.30;23.55;;;;;;;;;;5089971;28;20401;-90
2022/02/22 02:07:58;;;;;;;34.15;22.55;;;;;;;;;;5106484;28;20796;-92
2022/02/22 02:10:25;;;;;;;32.90;22.70;;;;;;;;;;5096954;28;20485;-91
2022/02/22 02:12:53;;;;;;;35.78;23.80;;;;;;;;;;5089849;28;20941;-92
2022/02/22 02:15:20;;;;;;;33.55;23.13;;;;;;;;;;5090240;28;20454;-91
2022/02/22 02:17:47;;;;;;;33.00;22.88;;;;;;;;;;5102143;28;20451;-91
2022/02/22 02:20:14;;;;;;;33.50;21.95;;;;;;;;;;5090173;28;20400;-91
2022/02/22 02:22:43;;;;;;;31.52;21.40;;;;;;;;;;5093234;28;20398;-91
2022/02/22 02:25:11;;;;;;;27.45;19.58;;;;;;;;;;5089893;28;20436;-92
2022/02/22 02:27:39;;;;;;;27.05;19.38;;;;;;;;;;5101448;28;20420;-91
2022/02/22 02:30:08;;;;;;;28.85;19.33;;;;;;;;;;5092625;28;20469;-91
2022/02/22 02:32:35;;;;;;;28.48;19.55;;;;;;;;;;5101393;28;20518;-92
2022/02/22 02:35:03;;;;;;;27.52;19.65;;;;;;;;;;5099310;28;21277;-91
2022/02/22 02:37:30;;;;;;;30.70;20.52;;;;;;;;;;5089766;28;20400;-92
2022/02/22 02:39:59;;;;;;;31.52;20.00;;;;;;;;;;5089632;28;21390;-91
2022/02/22 02:42:26;;;;;;;30.45;20.10;;;;;;;;;;5089622;28;20411;-92
2022/02/22 02:44:53;;;;;;;28.88;20.35;;;;;;;;;;5101451;28;20402;-91
2022/02/22 02:47:20;;;;;;;30.67;19.23;;;;;;;;;;5087666;28;20412;-92
2022/02/22 02:49:47;;;;;;;25.02;17.95;;;;;;;;;;5088141;28;20423;-91
2022/02/22 02:52:14;;;;;;;27.65;18.67;;;;;;;;;;5105494;28;20808;-92
2022/02/22 02:54:41;;;;;;;26.98;17.95;;;;;;;;;;5109735;28;20929;-91
2022/02/22 02:57:10;;;;;;;24.98;17.33;;;;;;;;;;5109789;28;20414;-91
2022/02/22 02:59:37;;;;;;;24.88;17.85;;;;;;;;;;5076983;28;20419;-92
2022/02/22 03:02:04;;;;;;;26.93;18.93;;;;;;;;;;5088342;28;20460;-90
2022/02/22 03:04:31;;;;;;;25.02;17.40;;;;;;;;;;5120161;27;20424;-93
2022/02/22 03:06:58;;;;;;;23.40;17.33;;;;;;;;;;5096314;28;20418;-91
2022/02/22 03:09:24;;;;;;;25.33;16.65;;;;;;;;;;5098002;28;20458;-91
2022/02/22 03:11:51;;;;;;;23.37;16.43;;;;;;;;;;5089796;28;20890;-92
2022/02/22 03:14:20;;;;;;;24.10;16.10;;;;;;;;;;5082176;28;20878;-91
2022/02/22 03:16:47;;;;;;;22.60;15.65;;;;;;;;;;5067209;28;20394;-92
2022/02/22 03:19:14;;;;;;;21.80;15.68;;;;;;;;;;5066789;28;20429;-92
2022/02/22 03:21:41;;;;;;;22.60;15.93;;;;;;;;;;5100498;28;20812;-93
2022/02/22 03:24:08;;;;;;;22.60;15.40;;;;;;;;;;5108690;28;20451;-92
2022/02/22 03:26:35;;;;;;;21.50;15.07;;;;;;;;;;5108252;28;20493;-92
2022/02/22 03:29:03;;;;;;;22.17;15.27;;;;;;;;;;5106372;28;20399;-92
2022/02/22 03:31:32;;;;;;;23.17;15.10;;;;;;;;;;5107986;28;20775;-91
2022/02/22 03:33:59;;;;;;;21.33;13.80;;;;;;;;;;5089786;22;20793;-83
2022/02/22 03:36:26;;;;;;;21.25;14.98;;;;;;;;;;5055844;28;20444;-83
2022/02/22 03:38:54;;;;;;;20.02;13.95;;;;;;;;;;5056100;28;20405;-83
2022/02/22 03:41:22;;;;;;;18.75;13.07;;;;;;;;;;5053838;28;20749;-83
2022/02/22 03:43:49;;;;;;;18.50;14.45;;;;;;;;;;5054463;28;20414;-83
2022/02/22 03:46:16;;;;;;;21.17;14.57;;;;;;;;;;5055783;28;20426;-82
2022/02/22 03:48:44;;;;;;;21.63;14.57;;;;;;;;;;5055258;28;20398;-83
2022/02/22 03:51:11;;;;;;;21.70;15.07;;;;;;;;;;5055906;28;20409;-83
2022/02/22 03:53:38;;;;;;;20.40;14.13;;;;;;;;;;5052337;28;20423;-82
2022/02/22 03:56:05;;;;;;;18.48;13.38;;;;;;;;;;5054518;28;20445;-83
2022/02/22 03:58:32;;;;;;;20.85;13.98;;;;;;;;;;5052820;28;20410;-83
2022/02/22 04:00:59;;;;;;;19.17;13.10;;;;;;;;;;5053453;28;20961;-83
2022/02/22 04:03:25;;;;;;;19.33;13.43;;;;;;;;;;5053886;28;20474;-83
2022/02/22 04:05:54;;;;;;;19.63;13.18;;;;;;;;;;5052516;28;20404;-83
2022/02/22 04:08:20;;;;;;;19.73;13.52;;;;;;;;;;5055056;28;20406;-83
2022/02/22 04:10:47;;;;;;;19.00;13.23;;;;;;;;;;5051751;28;20458;-83
2022/02/22 04:13:14;;;;;;;19.58;13.43;;;;;;;;;;5055054;28;20413;-83
2022/02/22 04:15:41;;;;;;;18.40;13.60;;;;;;;;;;5053301;28;20907;-82
2022/02/22 04:18:08;;;;;;;21.95;14.60;;;;;;;;;;5054604;28;20405;-83
2022/02/22 04:20:35;;;;;;;21.27;14.43;;;;;;;;;;5052994;28;21130;-82
2022/02/22 04:23:03;;;;;;;19.58;13.40;;;;;;;;;;5053627;28;20911;-83
2022/02/22 04:25:30;;;;;;;20.10;14.15;;;;;;;;;;5053460;28;20410;-83
2022/02/22 04:27:57;;;;;;;20.93;14.40;;;;;;;;;;5052329;28;21579;-83
2022/02/22 04:30:24;;;;;;;21.55;14.43;;;;;;;;;;5054773;28;20410;-84
2022/02/22 04:32:51;;;;;;;21.38;14.98;;;;;;;;;;5054116;28;20531;-83
2022/02/22 04:35:18;;;;;;;23.63;15.88;;;;;;;;;;5051483;28;20415;-83
2022/02/22 04:37:45;;;;;;;22.05;15.20;;;;;;;;;;5055521;28;20404;-83
2022/02/22 04:40:13;;;;;;;22.70;14.93;;;;;;;;;;5054859;28;20413;-83
2022/02/22 04:42:41;;;;;;;21.38;14.43;;;;;;;;;;5055204;28;20738;-83
2022/02/22 04:45:09;;;;;;;22.75;15.13;;;;;;;;;;5056742;28;20463;-82
2022/02/22 04:47:36;;;;;;;22.17;14.98;;;;;;;;;;5056522;28;21149;-83
2022/02/22 04:50:05;;;;;;;19.65;14.27;;;;;;;;;;5056885;28;20411;-82
2022/02/22 04:52:32;;;;;;;22.83;14.80;;;;;;;;;;5056839;28;20409;-82
2022/02/22 04:54:59;;;;;;;21.98;14.88;;;;;;;;;;5056436;28;20399;-83
2022/02/22 04:57:27;;;;;;;19.67;14.10;;;;;;;;;;5057626;28;20422;-83
2022/02/22 04:59:54;;;;;;;20.50;13.80;;;;;;;;;;5037596;28;20404;-83
2022/02/22 05:02:21;;;;;;;21.05;14.00;;;;;;;;;;5057169;28;20478;-83
2022/02/22 05:04:48;;;;;;;22.73;13.87;;;;;;;;;;5056711;28;20860;-82
2022/02/22 05:07:15;;;;;;;19.92;13.30;;;;;;;;;;5064279;28;20483;-83
2022/02/22 05:09:42;;;;;;;20.37;13.70;;;;;;;;;;5063065;28;20402;-83
2022/02/22 05:12:10;;;;;;;19.17;14.05;;;;;;;;;;5063984;28;20439;-82
2022/02/22 05:14:38;;;;;;;20.00;13.50;;;;;;;;;;5061522;28;20437;-81
2022/02/22 05:17:06;;;;;;;19.08;12.73;;;;;;;;;;5056468;28;20878;-84
2022/02/22 05:19:33;;;;;;;20.35;14.00;;;;;;;;;;5063301;28;20485;-83
2022/02/22 05:22:00;;;;;;;21.67;14.27;;;;;;;;;;5061109;28;20576;-83
2022/02/22 05:24:27;;;;;;;19.15;13.55;;;;;;;;;;5063135;28;20402;-84
2022/02/22 05:26:53;;;;;;;21.65;13.80;;;;;;;;;;5061177;28;20422;-84
2022/02/22 05:29:20;;;;;;;22.48;14.63;;;;;;;;;;5059498;28;20774;-82
2022/02/22 05:31:48;;;;;;;21.50;14.10;;;;;;;;;;5060329;28;20754;-83
2022/02/22 05:34:15;;;;;;;22.80;15.20;;;;;;;;;;5051025;28;20411;-83
2022/02/22 05:36:42;;;;;;;18.48;12.70;;;;;;;;;;5048377;28;21037;-83
2022/02/22 05:39:09;;;;;;;21.55;13.77;;;;;;;;;;5047418;28;20401;-83
2022/02/22 05:41:36;;;;;;;23.25;14.73;;;;;;;;;;5051759;28;20410;-83
2022/02/22 05:44:03;;;;;;;19.77;14.02;;;;;;;;;;5049872;28;20426;-83
2022/02/22 05:46:30;;;;;;;19.13;13.43;;;;;;;;;;5062510;28;20402;-83
2022/02/22 05:48:58;;;;;;;20.20;13.60;;;;;;;;;;5061540;28;20476;-83
2022/02/22 05:51:25;;;;;;;22.30;13.93;;;;;;;;;;5062375;28;20410;-83
2022/02/22 05:53:52;;;;;;;21.40;14.70;;;;;;;;;;5062602;28;20483;-83
2022/02/22 05:56:19;;;;;;;19.23;14.40;;;;;;;;;;5058015;28;20421;-83
2022/02/22 05:58:46;;;;;;;23.85;15.95;;;;;;;;;;5061851;28;20493;-84
2022/02/22 06:01:13;;;;;;;29.15;17.30;;;;;;;;;;5063137;28;20412;-83
2022/02/22 06:03:39;;;;;;;29.88;17.40;;;;;;;;;;5061629;28;20756;-83
2022/02/22 06:06:08;;;;;;;26.55;17.73;;;;;;;;;;5061534;28;20406;-83
2022/02/22 06:08:34;;;;;;;28.67;17.63;;;;;;;;;;5062148;28;20417;-83
2022/02/22 06:11:01;;;;;;;27.80;17.55;;;;;;;;;;5048003;28;20405;-83
2022/02/22 06:13:28;;;;;;;26.02;17.70;;;;;;;;;;5052570;28;20404;-83
2022/02/22 06:15:55;;;;;;;32.47;19.08;;;;;;;;;;5058860;28;20531;-83
2022/02/22 06:18:22;;;;;;;28.30;18.10;;;;;;;;;;5054285;28;20558;-83
2022/02/22 06:20:49;;;;;;;32.10;19.25;;;;;;;;;;5053415;28;20475;-83
2022/02/22 06:23:17;;;;;;;30.17;19.00;;;;;;;;;;5056593;28;20405;-84
2022/02/22 06:25:44;;;;;;;30.95;18.35;;;;;;;;;;5051963;28;20825;-83
2022/02/22 06:28:12;;;;;;;28.23;18.77;;;;;;;;;;5054468;28;20448;-83
2022/02/22 06:30:39;;;;;;;28.52;18.90;;;;;;;;;;5061352;28;20459;-83
2022/02/22 06:33:06;;;;;;;29.57;18.90;;;;;;;;;;5052967;28;20415;-83
2022/02/22 06:35:33;;;;;;;52.20;32.42;;;;;;;;;;5052244;28;20489;-83
2022/02/22 06:38:00;;;;;;;34.60;22.13;;;;;;;;;;5057421;28;20403;-84
2022/02/22 06:40:29;;;;;;;66.40;38.83;;;;;;;;;;5051797;28;20407;-85
2022/02/22 06:42:56;;;;;;;52.07;30.77;;;;;;;;;;5057232;28;20411;-84
2022/02/22 06:45:22;;;;;;;28.92;18.05;;;;;;;;;;5050051;28;20505;-85
2022/02/22 06:47:50;;;;;;;27.50;17.33;;;;;;;;;;5054753;28;20457;-84
2022/02/22 06:50:17;;;;;;;28.63;18.77;;;;;;;;;;5050099;28;20412;-84
2022/02/22 06:52:44;;;;;;;56.88;31.10;;;;;;;;;;5050312;28;20475;-83
2022/02/22 06:55:11;;;;;;;36.37;22.53;;;;;;;;;;5055653;28;20448;-83
2022/02/22 06:57:41;;;;;;;25.70;18.40;;;;;;;;;;5058077;28;20410;-83
2022/02/22 07:00:12;;;;;;;27.83;19.55;;;;;;;;;;5060499;28;20398;-84
2022/02/22 07:02:40;;;;;;;29.95;20.95;;;;;;;;;;5060111;28;20763;-83
2022/02/22 07:05:08;;;;;;;31.75;21.08;;;;;;;;;;5059843;28;20793;-84
2022/02/22 07:07:36;;;;;;;30.75;20.80;;;;;;;;;;5059143;28;20417;-83
2022/02/22 07:10:03;;;;;;;30.73;20.40;;;;;;;;;;5060771;28;20405;-84
2022/02/22 07:12:30;;;;;;;29.92;20.95;;;;;;;;;;5060866;28;21386;-84
2022/02/22 07:14:57;;;;;;;32.37;22.03;;;;;;;;;;5060564;28;20522;-83
2022/02/22 07:17:25;;;;;;;31.17;21.48;;;;;;;;;;5060378;28;20405;-84
2022/02/22 07:19:52;;;;;;;27.63;19.33;;;;;;;;;;5060761;28;20511;-84
2022/02/22 07:22:19;;;;;;;30.88;19.63;;;;;;;;;;5049975;28;20473;-83
2022/02/22 07:24:46;;;;;;;29.95;20.35;;;;;;;;;;5047270;28;20773;-84
2022/02/22 07:27:12;;;;;;;28.88;19.75;;;;;;;;;;5046971;28;20402;-84
2022/02/22 07:29:39;;;;;;;29.23;19.92;;;;;;;;;;5047454;28;20398;-84
2022/02/22 07:32:07;;;;;;;32.75;20.13;;;;;;;;;;5047395;28;20399;-84
2022/02/22 07:34:35;;;;;;;31.40;20.25;;;;;;;;;;5046862;28;20418;-84
2022/02/22 07:37:03;;;;;;;31.95;20.38;;;;;;;;;;5047180;28;20408;-84
2022/02/22 07:39:29;;;;;;;31.67;20.27;;;;;;;;;;5047361;28;20424;-84
2022/02/22 07:41:56;;;;;;;28.83;20.63;;;;;;;;;;5050157;28;20398;-84
2022/02/22 07:44:23;;;;;;;34.28;22.40;;;;;;;;;;5060038;28;20397;-84
2022/02/22 07:46:50;;;;;;;31.27;21.75;;;;;;;;;;5058170;28;20394;-84
2022/02/22 07:49:16;;;;;;;31.57;22.33;;;;;;;;;;5059687;28;20417;-84
2022/02/22 07:51:44;;;;;;;30.02;21.73;;;;;;;;;;5059791;28;20760;-84
2022/02/22 07:54:11;;;;;;;30.67;22.05;;;;;;;;;;5059571;28;20760;-84
2022/02/22 07:56:38;;;;;;;30.17;20.85;;;;;;;;;;5059826;28;20413;-84
2022/02/22 07:59:05;;;;;;;29.20;20.17;;;;;;;;;;5059631;28;20410;-84
2022/02/22 08:01:32;;;;;;;27.25;18.98;;;;;;;;;;5059581;28;20409;-84
2022/02/22 08:03:59;;;;;;;25.23;18.60;;;;;;;;;;5059673;28;20398;-84
2022/02/22 08:06:26;;;;;;;25.55;18.15;;;;;;;;;;5059650;28;20402;-84
2022/02/22 08:08:54;;;;;;;25.87;19.00;;;;;;;;;;5059671;28;20418;-84
2022/02/22 08:11:21;;;;;;;27.97;18.80;;;;;;;;;;5057612;28;20486;-84
2022/02/22 08:13:48;;;;;;;26.75;19.20;;;;;;;;;;5060139;28;20478;-83
2022/02/22 08:16:15;;;;;;;25.67;17.70;;;;;;;;;;5049625;28;20469;-83
2022/02/22 08:18:42;;;;;;;27.60;18.42;;;;;;;;;;5048360;28;20420;-83
2022/02/22 08:21:09;;;;;;;27.48;19.42;;;;;;;;;;5051320;28;20405;-83
2022/02/22 08:23:36;;;;;;;29.25;20.58;;;;;;;;;;5050809;28;20438;-83
2022/02/22 08:26:05;;;;;;;31.15;20.15;;;;;;;;;;5051190;28;20412;-83
2022/02/22 08:28:32;;;;;;;30.90;19.77;;;;;;;;;;5050774;28;20423;-83
2022/02/22 08:30:59;;;;;;;28.20;17.98;;;;;;;;;;5051080;28;20403;-84
2022/02/22 08:33:26;;;;;;;27.30;19.08;;;;;;;;;;5050111;28;20395;-83
2022/02/22 08:35:53;;;;;;;30.88;19.77;;;;;;;;;;5051301;28;20513;-83
2022/02/22 08:38:20;;;;;;;28.70;19.52;;;;;;;;;;5061303;28;20425;-83
2022/02/22 08:40:49;;;;;;;30.50;19.38;;;;;;;;;;5063725;28;20398;-83
2022/02/22 08:43:17;;;;;;;28.98;19.80;;;;;;;;;;5060798;28;20421;-83
2022/02/22 08:45:44;;;;;;;27.42;19.80;;;;;;;;;;5053899;28;20405;-83
2022/02/22 08:48:11;;;;;;;28.13;19.60;;;;;;;;;;5050706;28;20417;-83
2022/02/22 08:50:38;;;;;;;28.77;19.42;;;;;;;;;;5050722;28;20399;-83
2022/02/22 08:53:05;;;;;;;31.50;19.38;;;;;;;;;;5051088;28;20396;-84
2022/02/22 08:55:32;;;;;;;29.25;20.20;;;;;;;;;;5050768;28;20514;-83
2022/02/22 08:57:59;;;;;;;28.98;19.35;;;;;;;;;;5050409;28;20409;-84
2022/02/22 09:00:28;;;;;;;29.10;20.13;;;;;;;;;;5050500;28;20446;-84
2022/02/22 09:02:57;;;;;;;29.80;19.85;;;;;;;;;;5051232;28;20461;-82
2022/02/22 09:05:25;;;;;;;28.88;19.65;;;;;;;;;;5053007;28;20465;-82
2022/02/22 09:07:52;;;;;;;24.48;18.17;;;;;;;;;;5060735;28;20479;-82
2022/02/22 09:10:19;;;;;;;25.88;18.30;;;;;;;;;;5062753;28;20398;-83
2022/02/22 09:12:46;;;;;;;27.10;17.63;;;;;;;;;;5053374;28;20502;-83
2022/02/22 09:15:14;;;;;;;29.48;18.08;;;;;;;;;;5050369;28;20471;-83
2022/02/22 09:17:43;;;;;;;24.98;17.38;;;;;;;;;;5050704;28;20402;-83
2022/02/22 09:20:13;;;;;;;25.17;17.00;;;;;;;;;;5050565;28;20398;-83
2022/02/22 09:22:40;;;;;;;21.42;14.23;;;;;;;;;;5050827;28;20443;-83
2022/02/22 09:25:09;;;;;;;20.33;14.82;;;;;;;;;;5049556;28;20400;-83
2022/02/22 09:27:37;;;;;;;21.13;14.32;;;;;;;;;;5050411;28;20847;-84
2022/02/22 09:30:05;;;;;;;20.55;13.63;;;;;;;;;;5049793;28;20971;-83
2022/02/22 09:32:32;;;;;;;16.90;11.73;;;;;;;;;;5050630;28;20748;-83
2022/02/22 09:35:00;;;;;;;16.75;12.90;;;;;;;;;;5050184;28;20423;-83
2022/02/22 09:37:27;;;;;;;19.80;14.80;;;;;;;;;;5050070;28;20499;-83
2022/02/22 09:39:54;;;;;;;19.77;13.35;;;;;;;;;;5050224;28;20403;-83
2022/02/22 09:42:21;;;;;;;18.08;11.23;;;;;;;;;;5060031;28;20464;-83
2022/02/22 09:44:47;;;;;;;14.93;11.00;;;;;;;;;;5061834;28;20824;-83
2022/02/22 09:47:16;;;;;;;19.33;13.60;;;;;;;;;;5062108;28;20466;-83
2022/02/22 09:49:43;;;;;;;20.95;14.52;;;;;;;;;;5061177;28;20823;-83
2022/02/22 09:52:11;;;;;;;20.63;13.52;;;;;;;;;;5061137;28;20953;-83
2022/02/22 09:54:38;;;;;;;16.73;12.15;;;;;;;;;;5061100;28;20411;-83
2022/02/22 09:57:05;;;;;;;16.23;11.48;;;;;;;;;;5061273;28;20426;-83
2022/02/22 09:59:32;;;;;;;16.42;11.27;;;;;;;;;;5060263;28;20452;-83
2022/02/22 10:01:59;;;;;;;18.98;13.02;;;;;;;;;;5061157;28;20781;-83
2022/02/22 10:04:26;;;;;;;15.30;11.10;;;;;;;;;;5060591;28;20406;-84
2022/02/22 10:07:01;;;;;;;13.55;9.52;;;;;;;;;;5061217;28;20467;-83
2022/02/22 10:09:31;;;;;;;11.48;7.85;;;;;;;;;;5059239;28;20767;-83
2022/02/22 10:11:57;;;;;;;10.38;7.90;;;;;;;;;;5060589;28;20401;-83
2022/02/22 10:14:26;;;;;;;11.65;8.23;;;;;;;;;;5060905;28;20394;-83
2022/02/22 10:16:54;;;;;;;12.05;8.38;;;;;;;;;;5058852;28;20403;-83
2022/02/22 10:19:24;;;;;;;10.00;7.57;;;;;;;;;;5060820;28;20521;-84
2022/02/22 10:21:54;;;;;;;9.77;7.40;;;;;;;;;;5061842;28;20406;-83
2022/02/22 10:24:22;;;;;;;8.23;6.60;;;;;;;;;;5059169;28;20455;-83
2022/02/22 10:27:00;;;;;;;10.57;6.95;;;;;;;;;;5061036;28;20460;-83
2022/02/22 10:29:30;;;;;;;8.15;6.00;;;;;;;;;;5058670;28;20487;-83
2022/02/22 10:31:57;;;;;;;8.68;5.95;;;;;;;;;;5059857;28;20915;-82
2022/02/22 10:34:31;;;;;;;7.35;5.63;;;;;;;;;;5060156;28;20402;-83
2022/02/22 10:36:58;;;;;;;9.90;6.95;;;;;;;;;;5058593;28;20401;-82
2022/02/22 10:39:26;;;;;;;10.18;6.50;;;;;;;;;;5060148;28;20398;-83
2022/02/22 10:41:56;;;;;;;8.38;6.20;;;;;;;;;;5053580;28;20412;-83
2022/02/22 10:44:29;;;;;;;12.32;8.90;;;;;;;;;;5051693;28;20400;-83
2022/02/22 10:46:56;;;;;;;13.10;9.48;;;;;;;;;;5058159;28;20410;-83
2022/02/22 10:49:25;;;;;;;12.45;8.73;;;;;;;;;;5058192;28;20448;-84
2022/02/22 10:51:52;;;;;;;11.45;7.80;;;;;;;;;;5048836;28;20478;-84
2022/02/22 10:54:20;;;;;;;9.57;7.28;;;;;;;;;;5058250;28;20644;-84
2022/02/22 10:56:47;;;;;;;8.55;6.47;;;;;;;;;;5058478;28;20394;-84
2022/02/22 10:59:17;;;;;;;8.68;5.68;;;;;;;;;;5053314;28;20459;-85
2022/02/22 11:01:44;;;;;;;6.93;5.65;;;;;;;;;;5055807;28;20455;-84
2022/02/22 11:04:11;;;;;;;7.07;5.40;;;;;;;;;;5060314;28;20464;-85
2022/02/22 11:06:38;;;;;;;6.50;5.20;;;;;;;;;;5063738;28;21184;-84
2022/02/22 11:09:06;;;;;;;6.28;4.25;;;;;;;;;;5060930;28;20457;-85
2022/02/22 11:11:38;;;;;;;4.53;3.63;;;;;;;;;;5061086;28;20808;-85
2022/02/22 11:14:07;;;;;;;3.40;3.08;;;;;;;;;;5060121;28;20895;-84
2022/02/22 11:16:46;;;;;;;3.30;2.70;;;;;;;;;;5059168;28;20406;-85
2022/02/22 11:19:16;;;;;;;2.70;1.98;;;;;;;;;;5059540;28;20461;-85
2022/02/22 11:21:43;;;;;;;2.78;1.67;;;;;;;;;;5059206;28;20408;-85
2022/02/22 11:24:11;;;;;;;1.88;1.40;;;;;;;;;;5058721;28;20410;-85
2022/02/22 11:26:50;;;;;;;1.13;0.87;;;;;;;;;;5060311;28;20398;-85
2022/02/22 11:29:18;;;;;;;1.08;0.80;;;;;;;;;;5051145;28;20431;-85
2022/02/22 11:32:00;;;;;;;1.20;0.80;;;;;;;;;;5059157;28;20749;-85
2022/02/22 11:34:35;;;;;;;2.60;1.42;;;;;;;;;;5057010;28;20398;-85
2022/02/22 11:37:03;;;;;;;1.08;0.90;;;;;;;;;;5058600;28;20740;-85
2022/02/22 11:39:31;;;;;;;0.80;0.80;;;;;;;;;;5058130;28;20824;-85
2022/02/22 11:41:59;;;;;;;0.95;0.80;;;;;;;;;;5058953;28;20410;-83
2022/02/22 11:44:26;;;;;;;2.30;0.90;;;;;;;;;;5058377;28;20402;-83
2022/02/22 11:46:56;;;;;;;0.70;0.70;;;;;;;;;;5057373;28;20456;-83
2022/02/22 11:49:28;;;;;;;1.40;1.20;;;;;;;;;;5056508;28;20417;-84
2022/02/22 11:52:09;;;;;;;6.50;5.80;;;;;;;;;;5061646;28;20649;-84
2022/02/22 11:54:36;;;;;;;5.10;4.60;;;;;;;;;;5061460;28;20406;-84
2022/02/22 11:57:06;;;;;;;4.22;3.30;;;;;;;;;;5059521;28;20409;-84
2022/02/22 11:59:46;;;;;;;4.32;3.08;;;;;;;;;;5057828;28;20402;-84
2022/02/22 12:02:26;;;;;;;2.80;2.38;;;;;;;;;;5057738;28;20395;-83
2022/02/22 12:04:55;;;;;;;2.20;2.00;;;;;;;;;;5057672;28;20724;-84
2022/02/22 12:07:30;;;;;;;2.55;1.40;;;;;;;;;;5058501;28;21025;-84
2022/02/22 12:09:58;;;;;;;2.50;1.38;;;;;;;;;;5056714;28;20426;-84
2022/02/22 12:12:26;;;;;;;0.93;0.90;;;;;;;;;;5059259;28;20394;-83
2022/02/22 12:14:54;;;;;;;0.70;0.70;;;;;;;;;;5061025;28;20804;-84
2022/02/22 12:17:22;;;;;;;1.40;1.00;;;;;;;;;;5056954;28;20443;-84
2022/02/22 12:19:50;;;;;;;2.03;1.10;;;;;;;;;;5057391;28;20451;-84
2022/02/22 12:22:19;;;;;;;1.23;1.00;;;;;;;;;;5060672;28;20884;-84
2022/02/22 12:24:45;;;;;;;1.60;0.90;;;;;;;;;;5057489;28;20410;-84
2022/02/22 12:27:14;;;;;;;1.60;1.10;;;;;;;;;;5060665;28;20402;-84
2022/02/22 12:29:41;;;;;;;0.80;0.70;;;;;;;;;;5059414;28;20417;-83
2022/02/22 12:32:08;;;;;;;1.65;1.55;;;;;;;;;;5059232;28;20398;-84
2022/02/22 12:34:37;;;;;;;4.90;3.72;;;;;;;;;;5057607;28;20457;-83
2022/02/22 12:37:05;;;;;;;3.83;3.17;;;;;;;;;;5058890;28;20409;-83
2022/02/22 12:39:34;;;;;;;3.50;2.45;;;;;;;;;;5057013;28;20410;-83
2022/02/22 12:42:02;;;;;;;1.65;1.50;;;;;;;;;;5051284;28;20408;-83
2022/02/22 12:44:29;;;;;;;2.20;1.40;;;;;;;;;;5059038;28;20429;-83
2022/02/22 12:47:01;;;;;;;1.40;1.27;;;;;;;;;;5057840;28;20446;-83
2022/02/22 12:49:28;;;;;;;2.10;1.90;;;;;;;;;;5050952;28;20423;-84
2022/02/22 12:52:01;;;;;;;3.35;1.98;;;;;;;;;;5050793;28;20413;-83
2022/02/22 12:54:28;;;;;;;2.17;1.70;;;;;;;;;;5049058;28;20723;-83
2022/02/22 12:56:57;;;;;;;2.20;1.70;;;;;;;;;;5055686;28;20793;-83
2022/02/22 12:59:27;;;;;;;2.35;2.15;;;;;;;;;;5052936;28;20802;-83
2022/02/22 13:01:54;;;;;;;2.53;2.10;;;;;;;;;;5058523;28;20750;-84
2022/02/22 13:04:23;;;;;;;3.38;2.15;;;;;;;;;;5055493;28;20400;-84
2022/02/22 13:06:52;;;;;;;2.63;2.38;;;;;;;;;;5059542;28;20748;-82
2022/02/22 13:09:21;;;;;;;3.15;2.22;;;;;;;;;;5061632;28;20414;-84
2022/02/22 13:11:50;;;;;;;2.33;1.70;;;;;;;;;;5060842;28;20509;-84
2022/02/22 13:14:17;;;;;;;2.35;1.80;;;;;;;;;;5060610;28;20487;-84
2022/02/22 13:16:53;;;;;;;2.40;1.90;;;;;;;;;;5060859;28;20482;-84
2022/02/22 13:19:28;;;;;;;2.78;1.90;;;;;;;;;;5062912;28;20406;-84
2022/02/22 13:21:55;;;;;;;1.90;1.63;;;;;;;;;;5055370;28;20411;-84
2022/02/22 13:24:24;;;;;;;2.85;1.10;;;;;;;;;;5054290;28;20398;-84
2022/02/22 13:26:52;;;;;;;1.88;1.65;;;;;;;;;;5050678;28;20876;-85
2022/02/22 13:29:19;;;;;;;9.70;7.20;;;;;;;;;;5055653;28;20423;-85
2022/02/22 13:31:47;;;;;;;9.93;7.07;;;;;;;;;;5055480;28;20390;-85
2022/02/22 13:34:16;;;;;;;7.25;4.78;;;;;;;;;;5050347;28;20955;-85
2022/02/22 13:36:44;;;;;;;5.57;4.38;;;;;;;;;;5059955;28;20402;-86
2022/02/22 13:39:13;;;;;;;5.20;3.88;;;;;;;;;;5053325;28;21126;-85
2022/02/22 13:41:45;;;;;;;6.78;4.35;;;;;;;;;;5061011;28;20455;-85
2022/02/22 13:44:13;;;;;;;7.80;5.60;;;;;;;;;;5060776;28;20416;-84
2022/02/22 13:46:41;;;;;;;5.88;5.00;;;;;;;;;;5058763;28;20411;-84
2022/02/22 13:49:14;;;;;;;12.00;8.68;;;;;;;;;;5061157;28;20398;-84
2022/02/22 13:51:42;;;;;;;10.05;6.80;;;;;;;;;;5054178;28;20402;-84
2022/02/22 13:54:16;;;;;;;10.40;7.13;;;;;;;;;;5056385;28;20407;-86
2022/02/22 13:56:52;;;;;;;10.57;7.80;;;;;;;;;;5057944;28;20823;-85
2022/02/22 13:59:18;;;;;;;9.88;6.90;;;;;;;;;;5054312;28;20967;-85
2022/02/22 14:01:47;;;;;;;9.90;6.82;;;;;;;;;;5062414;28;20399;-85
2022/02/22 14:04:14;;;;;;;13.35;10.32;;;;;;;;;;5056014;28;20398;-84
2022/02/22 14:06:42;;;;;;;15.32;9.82;;;;;;;;;;5059375;28;20394;-84
2022/02/22 14:09:08;;;;;;;10.90;8.10;;;;;;;;;;5059013;28;20407;-84
2022/02/22 14:11:44;;;;;;;8.20;6.70;;;;;;;;;;5061690;28;20394;-84
2022/02/22 14:14:12;;;;;;;11.32;8.55;;;;;;;;;;5058910;28;20402;-84
2022/02/22 14:16:39;;;;;;;12.23;9.40;;;;;;;;;;5061884;28;20412;-84
2022/02/22 14:19:06;;;;;;;11.57;9.40;;;;;;;;;;5059963;28;20455;-84
2022/02/22 14:21:36;;;;;;;10.35;8.43;;;;;;;;;;5060781;28;20448;-83
2022/02/22 14:24:03;;;;;;;8.87;6.27;;;;;;;;;;5061007;28;20542;-84
2022/02/22 14:26:31;;;;;;;7.85;6.00;;;;;;;;;;5061881;28;20413;-84